sensor_id;sensor_type;location;lat;lon;timestamp;temperature;humidity
7028;DHT22;3555;53.248;10.336;2023-06-24T00:01:29;17.80;99.90
7028;DHT22;3555;53.248;10.336;2023-06-24T00:03:59;17.70;99.90
7028;DHT22;3555;53.248;10.336;2023-06-24T00:06:27;17.60;99.90
7028;DHT22;3555;53.248;10.336;2023-06-24T00:08:54;17.50;99.90
7028;DHT22;3555;53.248;10.336;2023-06-24T00:11:26;17.50;99.90
7028;DHT22;3555;53.248;10.336;2023-06-24T00:13:54;17.30;99.90
7028;DHT22;3555;53.248;10.336;2023-06-24T00:16:20;17.30;99.90
7028;DHT22;3555;53.248;10.336;2023-06-24T00:18:53;17.30;99.90
7028;DHT22;3555;53.248;10.336;2023-06-24T00:21:20;17.20;99.90
7028;DHT22;3555;53.248;10.336;2023-06-24T00:23:49;17.30;99.90
7028;DHT22;3555;53.248;10.336;2023-06-24T00:26:16;17.30;99.90
7028;DHT22;3555;53.248;10.336;2023-06-24T00:28:43;17.20;99.90
7028;DHT22;3555;53.248;10.336;2023-06-24T00:31:10;17.20;99.90
7028;DHT22;3555;53.248;10.336;2023-06-24T00:33:37;17.20;99.90
7028;DHT22;3555;53.248;10.336;2023-06-24T00:36:04;17.20;99.90
7028;DHT22;3555;53.248;10.336;2023-06-24T00:38:34;17.30;99.90
7028;DHT22;3555;53.248;10.336;2023-06-24T00:41:02;17.30;99.90
7028;DHT22;3555;53.248;10.336;2023-06-24T00:43:29;17.30;99.90
7028;DHT22;3555;53.248;10.336;2023-06-24T00:45:57;17.30;99.90
7028;DHT22;3555;53.248;10.336;2023-06-24T00:48:24;17.30;99.90
7028;DHT22;3555;53.248;10.336;2023-06-24T00:50:51;17.30;99.90
7028;DHT22;3555;53.248;10.336;2023-06-24T00:53:18;17.30;99.90
7028;DHT22;3555;53.248;10.336;2023-06-24T00:55:48;17.30;99.90
7028;DHT22;3555;53.248;10.336;2023-06-24T00:58:17;17.30;99.90
7028;DHT22;3555;53.248;10.336;2023-06-24T01:00:47;17.30;99.90
7028;DHT22;3555;53.248;10.336;2023-06-24T01:03:22;17.20;99.90
7028;DHT22;3555;53.248;10.336;2023-06-24T01:05:50;17.10;99.90
7028;DHT22;3555;53.248;10.336;2023-06-24T01:08:18;17.10;99.90
7028;DHT22;3555;53.248;10.336;2023-06-24T01:10:48;17.10;99.90
7028;DHT22;3555;53.248;10.336;2023-06-24T01:13:17;17.00;99.90
7028;DHT22;3555;53.248;10.336;2023-06-24T01:15:45;16.90;99.90
7028;DHT22;3555;53.248;10.336;2023-06-24T01:18:21;17.00;99.90
7028;DHT22;3555;53.248;10.336;2023-06-24T01:20:52;17.00;99.90
7028;DHT22;3555;53.248;10.336;2023-06-24T01:23:50;17.00;99.90
7028;DHT22;3555;53.248;10.336;2023-06-24T01:26:24;17.00;99.90
7028;DHT22;3555;53.248;10.336;2023-06-24T01:29:17;16.90;99.90
7028;DHT22;3555;53.248;10.336;2023-06-24T01:31:52;16.90;99.90
7028;DHT22;3555;53.248;10.336;2023-06-24T01:34:24;16.90;99.90
7028;DHT22;3555;53.248;10.336;2023-06-24T01:37:04;16.70;99.90
7028;DHT22;3555;53.248;10.336;2023-06-24T01:39:34;16.70;99.90
7028;DHT22;3555;53.248;10.336;2023-06-24T01:42:08;16.70;99.90
7028;DHT22;3555;53.248;10.336;2023-06-24T01:44:37;16.60;99.90
7028;DHT22;3555;53.248;10.336;2023-06-24T01:47:07;16.60;99.90
7028;DHT22;3555;53.248;10.336;2023-06-24T01:49:38;16.60;99.90
7028;DHT22;3555;53.248;10.336;2023-06-24T01:52:08;16.60;99.90
7028;DHT22;3555;53.248;10.336;2023-06-24T01:54:35;16.60;99.90
7028;DHT22;3555;53.248;10.336;2023-06-24T01:57:06;16.60;99.90
7028;DHT22;3555;53.248;10.336;2023-06-24T01:59:35;16.50;99.90
7028;DHT22;3555;53.248;10.336;2023-06-24T02:02:04;16.50;99.90
7028;DHT22;3555;53.248;10.336;2023-06-24T02:04:34;16.50;99.90
7028;DHT22;3555;53.248;10.336;2023-06-24T02:07:02;16.50;99.90
7028;DHT22;3555;53.248;10.336;2023-06-24T02:09:31;16.50;99.90
7028;DHT22;3555;53.248;10.336;2023-06-24T02:12:01;16.50;99.90
7028;DHT22;3555;53.248;10.336;2023-06-24T02:14:29;16.50;99.90
7028;DHT22;3555;53.248;10.336;2023-06-24T02:16:58;16.50;99.90
7028;DHT22;3555;53.248;10.336;2023-06-24T02:19:29;16.50;99.90
7028;DHT22;3555;53.248;10.336;2023-06-24T02:21:58;16.50;99.90
7028;DHT22;3555;53.248;10.336;2023-06-24T02:24:27;16.50;99.90
7028;DHT22;3555;53.248;10.336;2023-06-24T02:26:55;16.40;99.90
7028;DHT22;3555;53.248;10.336;2023-06-24T02:29:25;16.40;99.90
7028;DHT22;3555;53.248;10.336;2023-06-24T02:31:53;16.40;99.90
7028;DHT22;3555;53.248;10.336;2023-06-24T02:34:22;16.30;99.90
7028;DHT22;3555;53.248;10.336;2023-06-24T02:36:49;16.30;99.90
7028;DHT22;3555;53.248;10.336;2023-06-24T02:39:18;16.40;99.90
7028;DHT22;3555;53.248;10.336;2023-06-24T02:41:45;16.30;99.90
7028;DHT22;3555;53.248;10.336;2023-06-24T02:44:13;16.30;99.90
7028;DHT22;3555;53.248;10.336;2023-06-24T02:46:40;16.30;99.90
7028;DHT22;3555;53.248;10.336;2023-06-24T02:49:09;16.30;99.90
7028;DHT22;3555;53.248;10.336;2023-06-24T02:51:38;16.40;99.90
7028;DHT22;3555;53.248;10.336;2023-06-24T02:54:06;16.30;99.90
7028;DHT22;3555;53.248;10.336;2023-06-24T02:56:35;16.30;99.90
7028;DHT22;3555;53.248;10.336;2023-06-24T02:59:07;16.20;99.90
7028;DHT22;3555;53.248;10.336;2023-06-24T03:01:35;16.20;99.90
7028;DHT22;3555;53.248;10.336;2023-06-24T03:04:04;16.10;99.90
7028;DHT22;3555;53.248;10.336;2023-06-24T03:06:32;16.10;99.90
7028;DHT22;3555;53.248;10.336;2023-06-24T03:09:02;16.00;99.90
7028;DHT22;3555;53.248;10.336;2023-06-24T03:11:29;16.00;99.90
7028;DHT22;3555;53.248;10.336;2023-06-24T03:13:59;15.90;99.90
7028;DHT22;3555;53.248;10.336;2023-06-24T03:16:26;15.90;99.90
7028;DHT22;3555;53.248;10.336;2023-06-24T03:18:53;15.90;99.90
7028;DHT22;3555;53.248;10.336;2023-06-24T03:21:19;15.90;99.90
7028;DHT22;3555;53.248;10.336;2023-06-24T03:23:46;15.90;99.90
7028;DHT22;3555;53.248;10.336;2023-06-24T03:26:13;15.80;99.90
7028;DHT22;3555;53.248;10.336;2023-06-24T03:28:40;15.80;99.90
7028;DHT22;3555;53.248;10.336;2023-06-24T03:31:08;15.80;99.90
7028;DHT22;3555;53.248;10.336;2023-06-24T03:33:35;15.80;99.90
7028;DHT22;3555;53.248;10.336;2023-06-24T03:36:02;15.70;99.90
7028;DHT22;3555;53.248;10.336;2023-06-24T03:38:29;15.70;99.90
7028;DHT22;3555;53.248;10.336;2023-06-24T03:40:57;15.80;99.90
7028;DHT22;3555;53.248;10.336;2023-06-24T03:43:24;15.70;99.90
7028;DHT22;3555;53.248;10.336;2023-06-24T03:45:51;15.80;99.90
7028;DHT22;3555;53.248;10.336;2023-06-24T03:48:19;15.80;99.90
7028;DHT22;3555;53.248;10.336;2023-06-24T03:50:46;15.90;99.90
7028;DHT22;3555;53.248;10.336;2023-06-24T03:53:13;15.90;99.90
7028;DHT22;3555;53.248;10.336;2023-06-24T03:55:40;15.90;99.90
7028;DHT22;3555;53.248;10.336;2023-06-24T03:58:07;16.00;99.90
7028;DHT22;3555;53.248;10.336;2023-06-24T04:00:34;16.10;99.90
7028;DHT22;3555;53.248;10.336;2023-06-24T04:03:01;16.20;99.90
7028;DHT22;3555;53.248;10.336;2023-06-24T04:05:30;16.30;99.90
7028;DHT22;3555;53.248;10.336;2023-06-24T04:07:56;16.40;99.90
7028;DHT22;3555;53.248;10.336;2023-06-24T04:10:23;16.40;99.90
7028;DHT22;3555;53.248;10.336;2023-06-24T04:12:50;16.50;99.90
7028;DHT22;3555;53.248;10.336;2023-06-24T04:15:17;16.60;99.90
7028;DHT22;3555;53.248;10.336;2023-06-24T04:17:44;16.70;99.90
7028;DHT22;3555;53.248;10.336;2023-06-24T04:20:11;16.80;99.90
7028;DHT22;3555;53.248;10.336;2023-06-24T04:22:40;16.90;99.90
7028;DHT22;3555;53.248;10.336;2023-06-24T04:25:08;17.00;99.90
7028;DHT22;3555;53.248;10.336;2023-06-24T04:27:35;17.20;99.90
7028;DHT22;3555;53.248;10.336;2023-06-24T04:30:03;17.30;99.90
7028;DHT22;3555;53.248;10.336;2023-06-24T04:32:30;17.40;99.90
7028;DHT22;3555;53.248;10.336;2023-06-24T04:34:58;17.60;99.90
7028;DHT22;3555;53.248;10.336;2023-06-24T04:37:25;17.80;99.90
7028;DHT22;3555;53.248;10.336;2023-06-24T04:39:53;17.90;99.90
7028;DHT22;3555;53.248;10.336;2023-06-24T04:42:20;18.00;99.90
7028;DHT22;3555;53.248;10.336;2023-06-24T04:44:48;18.00;99.90
7028;DHT22;3555;53.248;10.336;2023-06-24T04:47:16;18.10;99.90
7028;DHT22;3555;53.248;10.336;2023-06-24T04:49:43;18.20;99.90
7028;DHT22;3555;53.248;10.336;2023-06-24T04:52:11;18.30;99.90
7028;DHT22;3555;53.248;10.336;2023-06-24T04:54:38;18.40;99.90
7028;DHT22;3555;53.248;10.336;2023-06-24T04:57:08;18.40;99.90
7028;DHT22;3555;53.248;10.336;2023-06-24T04:59:36;18.50;99.90
7028;DHT22;3555;53.248;10.336;2023-06-24T05:02:03;18.70;99.90
7028;DHT22;3555;53.248;10.336;2023-06-24T05:04:30;18.90;99.90
7028;DHT22;3555;53.248;10.336;2023-06-24T05:06:57;19.10;99.90
7028;DHT22;3555;53.248;10.336;2023-06-24T05:09:24;19.10;99.90
7028;DHT22;3555;53.248;10.336;2023-06-24T05:11:51;19.10;99.90
7028;DHT22;3555;53.248;10.336;2023-06-24T05:14:19;19.20;99.90
7028;DHT22;3555;53.248;10.336;2023-06-24T05:16:46;19.40;99.90
7028;DHT22;3555;53.248;10.336;2023-06-24T05:19:13;19.50;99.90
7028;DHT22;3555;53.248;10.336;2023-06-24T05:21:41;19.60;99.90
7028;DHT22;3555;53.248;10.336;2023-06-24T05:24:08;19.60;99.90
7028;DHT22;3555;53.248;10.336;2023-06-24T05:26:35;19.60;99.90
7028;DHT22;3555;53.248;10.336;2023-06-24T05:29:02;19.70;99.90
7028;DHT22;3555;53.248;10.336;2023-06-24T05:31:31;19.90;99.90
7028;DHT22;3555;53.248;10.336;2023-06-24T05:33:58;20.10;99.90
7028;DHT22;3555;53.248;10.336;2023-06-24T05:36:25;20.20;99.90
7028;DHT22;3555;53.248;10.336;2023-06-24T05:38:52;20.40;99.90
7028;DHT22;3555;53.248;10.336;2023-06-24T05:41:19;20.60;1.00
7028;DHT22;3555;53.248;10.336;2023-06-24T05:43:46;20.80;1.00
7028;DHT22;3555;53.248;10.336;2023-06-24T05:46:13;20.70;1.00
7028;DHT22;3555;53.248;10.336;2023-06-24T05:48:41;20.60;1.00
7028;DHT22;3555;53.248;10.336;2023-06-24T05:51:08;20.50;1.00
7028;DHT22;3555;53.248;10.336;2023-06-24T05:53:35;20.50;1.00
7028;DHT22;3555;53.248;10.336;2023-06-24T05:56:02;20.60;1.00
7028;DHT22;3555;53.248;10.336;2023-06-24T05:58:29;20.60;1.00
7028;DHT22;3555;53.248;10.336;2023-06-24T06:00:56;20.70;1.00
7028;DHT22;3555;53.248;10.336;2023-06-24T06:03:25;20.80;1.00
7028;DHT22;3555;53.248;10.336;2023-06-24T06:05:54;21.00;99.90
7028;DHT22;3555;53.248;10.336;2023-06-24T06:08:20;21.20;99.90
7028;DHT22;3555;53.248;10.336;2023-06-24T06:10:47;21.20;1.00
7028;DHT22;3555;53.248;10.336;2023-06-24T06:13:14;21.20;99.90
7028;DHT22;3555;53.248;10.336;2023-06-24T06:15:41;21.20;1.00
7028;DHT22;3555;53.248;10.336;2023-06-24T06:18:08;21.40;99.90
7028;DHT22;3555;53.248;10.336;2023-06-24T06:20:35;21.50;99.90
7028;DHT22;3555;53.248;10.336;2023-06-24T06:23:03;21.30;1.00
7028;DHT22;3555;53.248;10.336;2023-06-24T06:25:30;21.50;1.00
7028;DHT22;3555;53.248;10.336;2023-06-24T06:27:57;21.60;1.00
7028;DHT22;3555;53.248;10.336;2023-06-24T06:30:24;21.90;99.90
7028;DHT22;3555;53.248;10.336;2023-06-24T06:32:51;22.30;99.90
7028;DHT22;3555;53.248;10.336;2023-06-24T06:35:18;22.50;99.90
7028;DHT22;3555;53.248;10.336;2023-06-24T06:37:44;22.90;1.00
7028;DHT22;3555;53.248;10.336;2023-06-24T06:40:14;23.10;1.00
7028;DHT22;3555;53.248;10.336;2023-06-24T06:42:41;23.30;99.90
7028;DHT22;3555;53.248;10.336;2023-06-24T06:45:09;23.40;1.00
7028;DHT22;3555;53.248;10.336;2023-06-24T06:47:36;23.30;1.00
7028;DHT22;3555;53.248;10.336;2023-06-24T06:50:03;23.60;1.00
7028;DHT22;3555;53.248;10.336;2023-06-24T06:52:30;23.70;11.00
7028;DHT22;3555;53.248;10.336;2023-06-24T06:54:58;23.70;99.90
7028;DHT22;3555;53.248;10.336;2023-06-24T06:57:26;24.00;1.00
7028;DHT22;3555;53.248;10.336;2023-06-24T06:59:53;24.40;36.10
7028;DHT22;3555;53.248;10.336;2023-06-24T07:02:20;24.50;1.00
7028;DHT22;3555;53.248;10.336;2023-06-24T07:04:47;24.30;1.00
7028;DHT22;3555;53.248;10.336;2023-06-24T07:07:14;24.40;1.00
7028;DHT22;3555;53.248;10.336;2023-06-24T07:09:40;24.10;1.00
7028;DHT22;3555;53.248;10.336;2023-06-24T07:12:08;23.80;1.00
7028;DHT22;3555;53.248;10.336;2023-06-24T07:14:36;23.80;1.00
7028;DHT22;3555;53.248;10.336;2023-06-24T07:17:04;24.00;1.00
7028;DHT22;3555;53.248;10.336;2023-06-24T07:19:31;24.00;1.00
7028;DHT22;3555;53.248;10.336;2023-06-24T07:21:58;23.90;99.90
7028;DHT22;3555;53.248;10.336;2023-06-24T07:24:24;24.00;1.00
7028;DHT22;3555;53.248;10.336;2023-06-24T07:26:51;24.30;1.00
7028;DHT22;3555;53.248;10.336;2023-06-24T07:29:18;24.70;1.00
7028;DHT22;3555;53.248;10.336;2023-06-24T07:31:47;25.00;99.90
7028;DHT22;3555;53.248;10.336;2023-06-24T07:34:13;25.10;93.60
7028;DHT22;3555;53.248;10.336;2023-06-24T07:36:40;24.80;99.90
7028;DHT22;3555;53.248;10.336;2023-06-24T07:39:07;24.60;99.90
7028;DHT22;3555;53.248;10.336;2023-06-24T07:41:34;24.70;99.90
7028;DHT22;3555;53.248;10.336;2023-06-24T07:44:01;24.90;99.90
7028;DHT22;3555;53.248;10.336;2023-06-24T07:46:28;25.00;99.90
7028;DHT22;3555;53.248;10.336;2023-06-24T07:48:56;25.20;1.00
7028;DHT22;3555;53.248;10.336;2023-06-24T07:51:23;25.10;99.90
7028;DHT22;3555;53.248;10.336;2023-06-24T07:53:50;25.30;1.00
7028;DHT22;3555;53.248;10.336;2023-06-24T07:56:18;25.20;1.00
7028;DHT22;3555;53.248;10.336;2023-06-24T07:58:45;25.50;1.00
7028;DHT22;3555;53.248;10.336;2023-06-24T08:01:11;25.60;1.00
7028;DHT22;3555;53.248;10.336;2023-06-24T08:03:38;25.90;1.00
7028;DHT22;3555;53.248;10.336;2023-06-24T08:06:06;26.40;1.00
7028;DHT22;3555;53.248;10.336;2023-06-24T08:08:33;26.80;1.00
7028;DHT22;3555;53.248;10.336;2023-06-24T08:11:01;27.10;99.90
7028;DHT22;3555;53.248;10.336;2023-06-24T08:13:28;27.30;99.90
7028;DHT22;3555;53.248;10.336;2023-06-24T08:15:55;27.60;99.90
7028;DHT22;3555;53.248;10.336;2023-06-24T08:18:22;27.90;99.90
7028;DHT22;3555;53.248;10.336;2023-06-24T08:20:49;28.00;1.00
7028;DHT22;3555;53.248;10.336;2023-06-24T08:23:17;28.20;99.90
7028;DHT22;3555;53.248;10.336;2023-06-24T08:25:44;28.20;1.00
7028;DHT22;3555;53.248;10.336;2023-06-24T08:28:11;28.20;1.00
7028;DHT22;3555;53.248;10.336;2023-06-24T08:30:38;28.00;1.00
7028;DHT22;3555;53.248;10.336;2023-06-24T08:33:06;27.40;19.10
7028;DHT22;3555;53.248;10.336;2023-06-24T08:35:33;27.50;19.40
7028;DHT22;3555;53.248;10.336;2023-06-24T08:38:00;27.50;1.00
7028;DHT22;3555;53.248;10.336;2023-06-24T08:40:29;27.40;1.00
7028;DHT22;3555;53.248;10.336;2023-06-24T08:42:56;27.20;1.00
7028;DHT22;3555;53.248;10.336;2023-06-24T08:45:23;27.00;1.00
7028;DHT22;3555;53.248;10.336;2023-06-24T08:47:51;27.00;1.00
7028;DHT22;3555;53.248;10.336;2023-06-24T08:50:20;27.10;1.00
7028;DHT22;3555;53.248;10.336;2023-06-24T08:52:51;26.90;1.00
7028;DHT22;3555;53.248;10.336;2023-06-24T08:55:20;26.70;1.00
7028;DHT22;3555;53.248;10.336;2023-06-24T08:57:50;26.40;1.00
7028;DHT22;3555;53.248;10.336;2023-06-24T09:00:18;26.60;1.00
7028;DHT22;3555;53.248;10.336;2023-06-24T09:02:45;26.80;99.90
7028;DHT22;3555;53.248;10.336;2023-06-24T09:05:12;27.20;1.00
7028;DHT22;3555;53.248;10.336;2023-06-24T09:07:39;27.70;1.00
7028;DHT22;3555;53.248;10.336;2023-06-24T09:10:06;28.10;1.00
7028;DHT22;3555;53.248;10.336;2023-06-24T09:12:34;28.00;1.00
7028;DHT22;3555;53.248;10.336;2023-06-24T09:15:03;28.10;1.00
7028;DHT22;3555;53.248;10.336;2023-06-24T09:17:30;28.00;1.00
7028;DHT22;3555;53.248;10.336;2023-06-24T09:20:03;28.10;1.00
7028;DHT22;3555;53.248;10.336;2023-06-24T09:22:31;28.20;1.00
7028;DHT22;3555;53.248;10.336;2023-06-24T09:25:01;28.50;1.00
7028;DHT22;3555;53.248;10.336;2023-06-24T09:27:31;28.70;1.00
7028;DHT22;3555;53.248;10.336;2023-06-24T09:29:58;28.90;1.00
7028;DHT22;3555;53.248;10.336;2023-06-24T09:32:29;28.80;1.00
7028;DHT22;3555;53.248;10.336;2023-06-24T09:34:57;29.10;1.00
7028;DHT22;3555;53.248;10.336;2023-06-24T09:37:24;29.20;1.00
7028;DHT22;3555;53.248;10.336;2023-06-24T09:39:56;29.10;1.00
7028;DHT22;3555;53.248;10.336;2023-06-24T09:42:23;28.80;1.00
7028;DHT22;3555;53.248;10.336;2023-06-24T09:44:53;28.80;1.00
7028;DHT22;3555;53.248;10.336;2023-06-24T09:47:21;29.10;1.00
7028;DHT22;3555;53.248;10.336;2023-06-24T09:49:51;29.40;1.00
7028;DHT22;3555;53.248;10.336;2023-06-24T09:52:19;29.80;1.00
7028;DHT22;3555;53.248;10.336;2023-06-24T09:54:47;29.50;1.00
7028;DHT22;3555;53.248;10.336;2023-06-24T09:57:19;29.30;1.00
7028;DHT22;3555;53.248;10.336;2023-06-24T09:59:48;29.20;1.00
7028;DHT22;3555;53.248;10.336;2023-06-24T10:02:16;29.60;1.00
7028;DHT22;3555;53.248;10.336;2023-06-24T10:04:45;29.60;1.00
7028;DHT22;3555;53.248;10.336;2023-06-24T10:07:13;29.40;1.00
7028;DHT22;3555;53.248;10.336;2023-06-24T10:09:41;29.20;1.00
7028;DHT22;3555;53.248;10.336;2023-06-24T10:12:09;28.80;1.00
7028;DHT22;3555;53.248;10.336;2023-06-24T10:14:36;29.10;1.00
7028;DHT22;3555;53.248;10.336;2023-06-24T10:17:04;29.70;1.00
7028;DHT22;3555;53.248;10.336;2023-06-24T10:19:38;29.80;1.00
7028;DHT22;3555;53.248;10.336;2023-06-24T10:22:08;30.00;1.00
7028;DHT22;3555;53.248;10.336;2023-06-24T10:24:38;30.20;1.00
7028;DHT22;3555;53.248;10.336;2023-06-24T10:27:08;30.40;1.00
7028;DHT22;3555;53.248;10.336;2023-06-24T10:29:36;30.20;1.00
7028;DHT22;3555;53.248;10.336;2023-06-24T10:32:05;30.60;1.00
7028;DHT22;3555;53.248;10.336;2023-06-24T10:34:34;31.10;1.00
7028;DHT22;3555;53.248;10.336;2023-06-24T10:37:03;31.20;1.00
7028;DHT22;3555;53.248;10.336;2023-06-24T10:39:39;31.50;1.00
7028;DHT22;3555;53.248;10.336;2023-06-24T10:42:28;31.60;1.00
7028;DHT22;3555;53.248;10.336;2023-06-24T10:44:56;31.30;1.00
7028;DHT22;3555;53.248;10.336;2023-06-24T10:47:25;31.10;1.00
7028;DHT22;3555;53.248;10.336;2023-06-24T10:49:52;31.30;1.00
7028;DHT22;3555;53.248;10.336;2023-06-24T10:52:20;31.60;1.00
7028;DHT22;3555;53.248;10.336;2023-06-24T10:54:49;31.10;1.00
7028;DHT22;3555;53.248;10.336;2023-06-24T10:57:21;30.80;1.00
7028;DHT22;3555;53.248;10.336;2023-06-24T10:59:50;31.00;1.00
7028;DHT22;3555;53.248;10.336;2023-06-24T11:02:18;31.20;1.00
7028;DHT22;3555;53.248;10.336;2023-06-24T11:04:45;31.30;1.00
7028;DHT22;3555;53.248;10.336;2023-06-24T11:07:13;31.60;1.00
7028;DHT22;3555;53.248;10.336;2023-06-24T11:09:40;32.10;1.00
7028;DHT22;3555;53.248;10.336;2023-06-24T11:12:10;32.40;1.00
7028;DHT22;3555;53.248;10.336;2023-06-24T11:14:38;32.30;1.00
7028;DHT22;3555;53.248;10.336;2023-06-24T11:17:05;32.40;1.00
7028;DHT22;3555;53.248;10.336;2023-06-24T11:19:32;32.60;1.00
7028;DHT22;3555;53.248;10.336;2023-06-24T11:22:01;32.90;1.00
7028;DHT22;3555;53.248;10.336;2023-06-24T11:24:29;33.30;1.00
7028;DHT22;3555;53.248;10.336;2023-06-24T11:26:56;33.20;1.00
7028;DHT22;3555;53.248;10.336;2023-06-24T11:29:25;33.10;1.00
7028;DHT22;3555;53.248;10.336;2023-06-24T11:31:55;33.30;1.00
7028;DHT22;3555;53.248;10.336;2023-06-24T11:34:21;33.50;1.00
7028;DHT22;3555;53.248;10.336;2023-06-24T11:36:48;33.60;1.00
7028;DHT22;3555;53.248;10.336;2023-06-24T11:39:22;33.90;1.00
7028;DHT22;3555;53.248;10.336;2023-06-24T11:41:50;33.70;1.00
7028;DHT22;3555;53.248;10.336;2023-06-24T11:44:20;33.10;1.00
7028;DHT22;3555;53.248;10.336;2023-06-24T11:46:49;33.10;1.00
7028;DHT22;3555;53.248;10.336;2023-06-24T11:49:16;33.00;1.00
7028;DHT22;3555;53.248;10.336;2023-06-24T11:51:47;33.00;1.00
7028;DHT22;3555;53.248;10.336;2023-06-24T11:54:16;32.90;1.00
7028;DHT22;3555;53.248;10.336;2023-06-24T11:56:44;32.70;1.00
7028;DHT22;3555;53.248;10.336;2023-06-24T11:59:16;33.10;1.00
7028;DHT22;3555;53.248;10.336;2023-06-24T12:01:44;33.50;1.00
7028;DHT22;3555;53.248;10.336;2023-06-24T12:04:13;33.80;1.00
7028;DHT22;3555;53.248;10.336;2023-06-24T12:06:40;34.20;1.00
7028;DHT22;3555;53.248;10.336;2023-06-24T12:09:07;34.40;1.00
7028;DHT22;3555;53.248;10.336;2023-06-24T12:11:35;34.30;1.00
7028;DHT22;3555;53.248;10.336;2023-06-24T12:14:02;34.20;1.00
7028;DHT22;3555;53.248;10.336;2023-06-24T12:16:29;34.20;1.00
7028;DHT22;3555;53.248;10.336;2023-06-24T12:18:56;33.80;1.00
7028;DHT22;3555;53.248;10.336;2023-06-24T12:21:24;33.50;1.00
7028;DHT22;3555;53.248;10.336;2023-06-24T12:23:51;33.10;1.00
7028;DHT22;3555;53.248;10.336;2023-06-24T12:26:18;32.80;1.00
7028;DHT22;3555;53.248;10.336;2023-06-24T12:28:45;33.00;1.00
7028;DHT22;3555;53.248;10.336;2023-06-24T12:31:12;33.30;1.00
7028;DHT22;3555;53.248;10.336;2023-06-24T12:33:39;33.40;1.00
7028;DHT22;3555;53.248;10.336;2023-06-24T12:36:06;32.80;1.00
7028;DHT22;3555;53.248;10.336;2023-06-24T12:38:34;32.60;1.00
7028;DHT22;3555;53.248;10.336;2023-06-24T12:41:01;32.50;1.00
7028;DHT22;3555;53.248;10.336;2023-06-24T12:43:28;32.90;1.00
7028;DHT22;3555;53.248;10.336;2023-06-24T12:45:56;33.20;1.00
7028;DHT22;3555;53.248;10.336;2023-06-24T12:48:23;33.60;1.00
7028;DHT22;3555;53.248;10.336;2023-06-24T12:50:49;34.00;1.00
7028;DHT22;3555;53.248;10.336;2023-06-24T12:53:18;34.10;1.00
7028;DHT22;3555;53.248;10.336;2023-06-24T12:55:47;34.10;1.00
7028;DHT22;3555;53.248;10.336;2023-06-24T12:58:14;34.30;1.00
7028;DHT22;3555;53.248;10.336;2023-06-24T13:00:45;34.50;1.00
7028;DHT22;3555;53.248;10.336;2023-06-24T13:03:11;34.50;1.00
7028;DHT22;3555;53.248;10.336;2023-06-24T13:05:38;34.50;1.00
7028;DHT22;3555;53.248;10.336;2023-06-24T13:08:05;34.60;1.00
7028;DHT22;3555;53.248;10.336;2023-06-24T13:10:32;34.60;1.00
7028;DHT22;3555;53.248;10.336;2023-06-24T13:13:01;34.50;1.00
7028;DHT22;3555;53.248;10.336;2023-06-24T13:15:28;34.40;1.00
7028;DHT22;3555;53.248;10.336;2023-06-24T13:17:55;34.50;1.00
7028;DHT22;3555;53.248;10.336;2023-06-24T13:20:22;34.70;1.00
7028;DHT22;3555;53.248;10.336;2023-06-24T13:22:49;34.80;1.00
7028;DHT22;3555;53.248;10.336;2023-06-24T13:25:16;34.80;1.00
7028;DHT22;3555;53.248;10.336;2023-06-24T13:27:43;35.10;1.00
7028;DHT22;3555;53.248;10.336;2023-06-24T13:30:13;35.20;1.00
7028;DHT22;3555;53.248;10.336;2023-06-24T13:32:41;34.90;1.00
7028;DHT22;3555;53.248;10.336;2023-06-24T13:35:09;35.00;1.00
7028;DHT22;3555;53.248;10.336;2023-06-24T13:37:36;34.50;1.00
7028;DHT22;3555;53.248;10.336;2023-06-24T13:40:05;33.80;1.00
7028;DHT22;3555;53.248;10.336;2023-06-24T13:42:32;33.90;1.00
7028;DHT22;3555;53.248;10.336;2023-06-24T13:44:59;33.70;1.00
7028;DHT22;3555;53.248;10.336;2023-06-24T13:47:27;33.70;1.00
7028;DHT22;3555;53.248;10.336;2023-06-24T13:49:54;33.90;1.00
7028;DHT22;3555;53.248;10.336;2023-06-24T13:52:22;34.20;1.00
7028;DHT22;3555;53.248;10.336;2023-06-24T13:54:49;34.40;1.00
7028;DHT22;3555;53.248;10.336;2023-06-24T13:57:16;34.30;1.00
7028;DHT22;3555;53.248;10.336;2023-06-24T13:59:43;34.20;1.00
7028;DHT22;3555;53.248;10.336;2023-06-24T14:02:10;33.70;1.00
7028;DHT22;3555;53.248;10.336;2023-06-24T14:04:38;33.70;1.00
7028;DHT22;3555;53.248;10.336;2023-06-24T14:07:06;33.90;1.00
7028;DHT22;3555;53.248;10.336;2023-06-24T14:09:33;33.90;1.00
7028;DHT22;3555;53.248;10.336;2023-06-24T14:12:00;34.30;1.00
7028;DHT22;3555;53.248;10.336;2023-06-24T14:14:27;34.30;1.00
7028;DHT22;3555;53.248;10.336;2023-06-24T14:16:54;34.50;1.00
7028;DHT22;3555;53.248;10.336;2023-06-24T14:19:21;34.50;1.00
7028;DHT22;3555;53.248;10.336;2023-06-24T14:21:49;34.40;1.00
7028;DHT22;3555;53.248;10.336;2023-06-24T14:24:16;34.40;1.00
7028;DHT22;3555;53.248;10.336;2023-06-24T14:26:43;34.40;1.00
7028;DHT22;3555;53.248;10.336;2023-06-24T14:29:14;34.40;1.00
7028;DHT22;3555;53.248;10.336;2023-06-24T14:31:41;34.40;1.00
7028;DHT22;3555;53.248;10.336;2023-06-24T14:34:08;34.40;1.00
7028;DHT22;3555;53.248;10.336;2023-06-24T14:36:35;34.40;1.00
7028;DHT22;3555;53.248;10.336;2023-06-24T14:39:04;34.40;1.00
7028;DHT22;3555;53.248;10.336;2023-06-24T14:41:31;34.20;1.00
7028;DHT22;3555;53.248;10.336;2023-06-24T14:43:58;34.20;1.00
7028;DHT22;3555;53.248;10.336;2023-06-24T14:46:25;34.00;1.00
7028;DHT22;3555;53.248;10.336;2023-06-24T14:48:51;33.90;1.00
7028;DHT22;3555;53.248;10.336;2023-06-24T14:51:18;33.90;1.00
7028;DHT22;3555;53.248;10.336;2023-06-24T14:53:45;33.60;1.00
7028;DHT22;3555;53.248;10.336;2023-06-24T14:56:13;33.90;1.00
7028;DHT22;3555;53.248;10.336;2023-06-24T14:58:40;34.20;1.00
7028;DHT22;3555;53.248;10.336;2023-06-24T15:01:07;34.40;1.00
7028;DHT22;3555;53.248;10.336;2023-06-24T15:03:34;34.60;1.00
7028;DHT22;3555;53.248;10.336;2023-06-24T15:06:01;34.70;1.00
7028;DHT22;3555;53.248;10.336;2023-06-24T15:08:28;34.70;1.00
7028;DHT22;3555;53.248;10.336;2023-06-24T15:10:55;34.70;1.00
7028;DHT22;3555;53.248;10.336;2023-06-24T15:13:23;34.70;1.00
7028;DHT22;3555;53.248;10.336;2023-06-24T15:15:50;34.70;1.00
7028;DHT22;3555;53.248;10.336;2023-06-24T15:18:18;34.70;1.00
7028;DHT22;3555;53.248;10.336;2023-06-24T15:20:45;34.80;1.00
7028;DHT22;3555;53.248;10.336;2023-06-24T15:23:12;34.70;1.00
7028;DHT22;3555;53.248;10.336;2023-06-24T15:25:39;34.40;1.00
7028;DHT22;3555;53.248;10.336;2023-06-24T15:28:06;34.40;1.00
7028;DHT22;3555;53.248;10.336;2023-06-24T15:30:34;34.40;1.00
7028;DHT22;3555;53.248;10.336;2023-06-24T15:33:01;34.30;1.00
7028;DHT22;3555;53.248;10.336;2023-06-24T15:35:28;34.30;1.00
7028;DHT22;3555;53.248;10.336;2023-06-24T15:37:55;34.20;1.00
7028;DHT22;3555;53.248;10.336;2023-06-24T15:40:22;34.10;1.00
7028;DHT22;3555;53.248;10.336;2023-06-24T15:42:49;34.10;1.00
7028;DHT22;3555;53.248;10.336;2023-06-24T15:45:15;34.00;1.00
7028;DHT22;3555;53.248;10.336;2023-06-24T15:47:44;34.00;1.00
7028;DHT22;3555;53.248;10.336;2023-06-24T15:50:11;34.00;1.00
7028;DHT22;3555;53.248;10.336;2023-06-24T15:52:37;34.00;1.00
7028;DHT22;3555;53.248;10.336;2023-06-24T15:55:05;33.90;1.00
7028;DHT22;3555;53.248;10.336;2023-06-24T15:57:34;33.70;1.00
7028;DHT22;3555;53.248;10.336;2023-06-24T16:00:00;33.40;1.00